首页
METAR-TAF:

METAR-TAF

机场 :

Leeming, 英格兰

纬度: 54-18N, 经度: 001-32W, 海拔: 40米

当前天气观测

该预报发布于42分钟前的00:50 UTC
风速4节,风向南转南东
温度 8°C
湿度 76%
气压 1016 hPa
能见度10公里或以上

METAR: EGXE 040050Z AUTO 16004KT 9999 SCT023/// BKN070/// 08/04 Q1016

时间: 02:32 (01:32 UTC)

预报

该预报发布于14小时和38分钟前的10:54 UTC
预报有效从03日的 12点(UTC)到 03日的 16点(UTC)
风速10节,风向西
能见度10公里或以上
少量云层高于2800英尺
多云层高于4500英尺

TAF: EGXE 031054Z 0312/0316 26010KT 9999 FEW028 BKN045

超过4000个机场的气象观测和天气预报(METAR&TAF报告)。

可查询的气象台以黄色和红色小点在地图上表示。

将鼠标移到小点上方,可查看气象台名称。

然后点击查看天气观测和预报。

如需切换地图:点击带黑十字的绿色按钮放大地图;点击带横线的绿色按钮缩小地图;或者点击绿色箭头查看邻近地区的地图。


METAR-TAF: